Pagrindinis puslapis
METAR-TAF:

METAR-TAF

Oro uostai :

Managva, Nikaragva

platuma: 12-09N, ilguma: 086-10W, Aukštis: 50 m

Dabartinis oras

Ataskaita buvo paskelbta 23 minutes, ne 12:00 UTC
Vėjas 10 kt iš Rytų
Temperatūra 24°C
Drėgmė 83%
Slėgis 1014 hPa
Matomumas 10 km arba daugiau
Išsisklaidę debesys ne aukštis 2000 ft

METAR: MNMG 281200Z 10010KT 9999 SCT020 24/21 Q1013 A2994 NOSIG

Laikas: 06:23 (12:23 UTC)

Prognozė

Ataskaita buvo paskelbta 2 valandos ir 23 minutes, ne 10:00 UTC
Prognozė galioja nuo 28 metu 12 UTC su 29 metu 12 UTC
Vėjas 8 kt iš Rytų
Matomumas 10 km arba daugiau
Mažai debesys ne aukštis 2000 ft
Išsisklaidę debesys ne aukštis 7000 ft
Tapsmas
nuo 28 metu 14 UTC su 28 metu 16 UTC
Vėjas 16 kt iš Rytų/Šiaurės Rytų su gūsio iki 30 kt
Išsisklaidę debesys ne aukštis 2200 ft
Laikinai
nuo 28 metu 16 UTC su 28 metu 21 UTC
Su prošvaistėmis ne aukštis 2000 ft
dulksna

TAF: MNMG 281000Z 2812/2912 09008KT 9999 FEW020 SCT070 BECMG 2814/2816 06016G30KT SCT022 TEMPO 2816/2821 -DZ BKN020

Orai ataskaitas ir orų prognozės (METAR, TAF).

turimą stotys yra geltonos ir raudonos taškus žemėlapyje.

Perkelti pele per norėdami pamatyti stoties vardą.

Tada spustelėkite, norėdami matyti oro stebėjimo ir prognozės.

Norėdami pakeisti žemėlapį: spustelėkite ant žalios mygtukų su juodo kryžiaus žemyn,; žalią mygtuką su brūkšneliu, jei norite nutolinti; arba žalių rodyklių gretimoms žemėlapius.


METAR-TAF: